sensor_id;sensor_type;location;lat;lon;timestamp;pressure;altitude;pressure_sealevel;temperature;humidity
44001;BME280;29660;42.892;24.710;2023-01-31T00:03:28;96251.25;;;-2.66;100.00
44001;BME280;29660;42.892;24.710;2023-01-31T00:08:30;96529.09;;;-0.99;100.00
44001;BME280;29660;42.892;24.710;2023-01-31T00:13:32;96238.44;;;-2.56;100.00
44001;BME280;29660;42.892;24.710;2023-01-31T00:18:35;96480.31;;;-0.93;100.00
44001;BME280;29660;42.892;24.710;2023-01-31T00:23:59;96524.41;;;-0.31;100.00
44001;BME280;29660;42.892;24.710;2023-01-31T00:29:02;96425.44;;;-0.64;100.00
44001;BME280;29660;42.892;24.710;2023-01-31T00:34:05;96235.97;;;-1.62;100.00
44001;BME280;29660;42.892;24.710;2023-01-31T00:39:09;96259.59;;;-1.34;100.00
44001;BME280;29660;42.892;24.710;2023-01-31T00:44:11;96236.41;;;-1.30;100.00
44001;BME280;29660;42.892;24.710;2023-01-31T00:49:13;96456.44;;;0.19;100.00
44001;BME280;29660;42.892;24.710;2023-01-31T00:54:15;96257.53;;;-1.20;100.00
44001;BME280;29660;42.892;24.710;2023-01-31T00:59:17;96467.28;;;0.23;100.00
44001;BME280;29660;42.892;24.710;2023-01-31T01:04:19;96389.63;;;-0.23;100.00
44001;BME280;29660;42.892;24.710;2023-01-31T01:09:21;96473.72;;;0.04;100.00
44001;BME280;29660;42.892;24.710;2023-01-31T01:14:23;96427.28;;;-0.13;100.00
44001;BME280;29660;42.892;24.710;2023-01-31T01:19:25;96489.75;;;0.19;100.00
44001;BME280;29660;42.892;24.710;2023-01-31T01:24:28;96463.19;;;0.15;100.00
44001;BME280;29660;42.892;24.710;2023-01-31T01:29:29;96448.97;;;0.11;100.00
44001;BME280;29660;42.892;24.710;2023-01-31T01:34:34;96450.41;;;0.19;100.00
44001;BME280;29660;42.892;24.710;2023-01-31T01:39:38;96450.38;;;0.02;100.00
44001;BME280;29660;42.892;24.710;2023-01-31T01:49:58;96179.34;;;-1.45;100.00
44001;BME280;29660;42.892;24.710;2023-01-31T01:55:20;96166.84;;;-1.43;100.00
44001;BME280;29660;42.892;24.710;2023-01-31T02:00:27;96182.16;;;-1.35;100.00
44001;BME280;29660;42.892;24.710;2023-01-31T02:05:36;96168.63;;;-1.32;100.00
44001;BME280;29660;42.892;24.710;2023-01-31T02:15:42;96161.38;;;-1.30;100.00
44001;BME280;29660;42.892;24.710;2023-01-31T02:37:42;96417.59;;;0.45;100.00
44001;BME280;29660;42.892;24.710;2023-01-31T02:43:42;96352.59;;;0.02;100.00
44001;BME280;29660;42.892;24.710;2023-01-31T02:53:43;96430.78;;;0.50;100.00
44001;BME280;29660;42.892;24.710;2023-01-31T02:59:11;96455.38;;;0.61;96.78
44001;BME280;29660;42.892;24.710;2023-01-31T03:04:14;96450.84;;;0.56;98.00
44001;BME280;29660;42.892;24.710;2023-01-31T03:09:20;96321.28;;;-0.34;98.15
44001;BME280;29660;42.892;24.710;2023-01-31T03:14:44;96461.66;;;0.60;99.41
44001;BME280;29660;42.892;24.710;2023-01-31T03:25:09;96330.91;;;0.06;77.44
44001;BME280;29660;42.892;24.710;2023-01-31T03:30:19;96442.44;;;0.88;80.05
44001;BME280;29660;42.892;24.710;2023-01-31T03:35:27;96501.22;;;1.20;85.97
44001;BME280;29660;42.892;24.710;2023-01-31T03:40:39;96502.28;;;1.19;75.95
44001;BME280;29660;42.892;24.710;2023-01-31T03:45:48;96477.97;;;1.29;79.03
44001;BME280;29660;42.892;24.710;2023-01-31T03:51:03;96428.09;;;1.12;78.04
44001;BME280;29660;42.892;24.710;2023-01-31T03:56:19;96435.09;;;1.23;80.31
44001;BME280;29660;42.892;24.710;2023-01-31T04:01:26;96488.16;;;1.59;81.08
44001;BME280;29660;42.892;24.710;2023-01-31T04:06:37;96173.00;;;-0.35;80.13
44001;BME280;29660;42.892;24.710;2023-01-31T04:11:47;96291.81;;;0.38;79.54
44001;BME280;29660;42.892;24.710;2023-01-31T04:16:49;96231.94;;;0.13;79.17
44001;BME280;29660;42.892;24.710;2023-01-31T04:21:51;96288.66;;;0.53;79.53
44001;BME280;29660;42.892;24.710;2023-01-31T04:26:53;96417.88;;;1.33;79.02
44001;BME280;29660;42.892;24.710;2023-01-31T04:31:55;96284.50;;;0.57;78.83
44001;BME280;29660;42.892;24.710;2023-01-31T04:37:20;96431.50;;;1.30;81.62
44001;BME280;29660;42.892;24.710;2023-01-31T04:42:22;96201.28;;;-0.03;82.96
44001;BME280;29660;42.892;24.710;2023-01-31T04:47:26;96529.06;;;1.72;83.75
44001;BME280;29660;42.892;24.710;2023-01-31T04:52:28;96489.19;;;1.58;84.88
44001;BME280;29660;42.892;24.710;2023-01-31T04:57:30;96414.81;;;1.19;85.44
44001;BME280;29660;42.892;24.710;2023-01-31T05:02:32;96514.28;;;1.88;86.03
44001;BME280;29660;42.892;24.710;2023-01-31T05:07:34;96278.00;;;0.43;83.60
44001;BME280;29660;42.892;24.710;2023-01-31T05:12:36;96425.13;;;1.26;83.99
44001;BME280;29660;42.892;24.710;2023-01-31T05:17:38;96233.59;;;-0.14;85.27
44001;BME280;29660;42.892;24.710;2023-01-31T05:22:40;96378.16;;;0.73;85.82
44001;BME280;29660;42.892;24.710;2023-01-31T05:27:42;96549.94;;;1.79;86.05
44001;BME280;29660;42.892;24.710;2023-01-31T05:32:46;96536.34;;;1.48;84.90
44001;BME280;29660;42.892;24.710;2023-01-31T05:37:52;96499.63;;;1.36;85.62
44001;BME280;29660;42.892;24.710;2023-01-31T05:42:58;96388.13;;;0.71;85.15
44001;BME280;29660;42.892;24.710;2023-01-31T05:48:04;96527.19;;;1.51;84.98
44001;BME280;29660;42.892;24.710;2023-01-31T05:53:06;96145.94;;;-1.14;84.89
44001;BME280;29660;42.892;24.710;2023-01-31T05:58:10;96518.66;;;1.10;85.26
44001;BME280;29660;42.892;24.710;2023-01-31T06:03:12;96599.16;;;1.66;84.85
44001;BME280;29660;42.892;24.710;2023-01-31T06:08:33;96556.72;;;1.41;84.82
44001;BME280;29660;42.892;24.710;2023-01-31T06:13:38;96600.28;;;1.70;84.99
44001;BME280;29660;42.892;24.710;2023-01-31T06:18:40;96394.84;;;0.51;84.10
44001;BME280;29660;42.892;24.710;2023-01-31T06:23:42;96344.75;;;0.18;83.17
44001;BME280;29660;42.892;24.710;2023-01-31T06:28:47;96375.88;;;0.43;81.93
44001;BME280;29660;42.892;24.710;2023-01-31T06:33:49;96351.03;;;0.17;82.29
44001;BME280;29660;42.892;24.710;2023-01-31T06:39:11;96637.47;;;1.96;82.61
44001;BME280;29660;42.892;24.710;2023-01-31T06:44:13;96455.78;;;0.86;83.00
44001;BME280;29660;42.892;24.710;2023-01-31T06:49:15;96385.56;;;0.14;84.45
44001;BME280;29660;42.892;24.710;2023-01-31T06:54:17;96654.75;;;1.92;86.37
44001;BME280;29660;42.892;24.710;2023-01-31T06:59:19;96651.81;;;2.05;83.66
44001;BME280;29660;42.892;24.710;2023-01-31T07:04:21;96570.25;;;1.66;82.81
44001;BME280;29660;42.892;24.710;2023-01-31T07:09:26;96603.44;;;1.72;83.64
44001;BME280;29660;42.892;24.710;2023-01-31T07:14:28;96439.81;;;0.88;84.28
44001;BME280;29660;42.892;24.710;2023-01-31T07:19:30;96382.91;;;0.43;84.83
44001;BME280;29660;42.892;24.710;2023-01-31T07:24:32;96411.38;;;0.51;84.03
44001;BME280;29660;42.892;24.710;2023-01-31T07:29:34;96618.66;;;1.87;85.37
44001;BME280;29660;42.892;24.710;2023-01-31T07:34:39;96464.38;;;0.82;85.43
44001;BME280;29660;42.892;24.710;2023-01-31T07:39:59;96643.44;;;2.08;85.89
44001;BME280;29660;42.892;24.710;2023-01-31T07:45:01;96608.63;;;1.84;85.82
44001;BME280;29660;42.892;24.710;2023-01-31T07:50:18;96447.38;;;0.84;83.68
44001;BME280;29660;42.892;24.710;2023-01-31T07:55:20;96632.53;;;2.16;85.07
44001;BME280;29660;42.892;24.710;2023-01-31T08:00:22;96589.13;;;1.97;85.55
44001;BME280;29660;42.892;24.710;2023-01-31T08:05:46;96597.97;;;1.74;85.82
44001;BME280;29660;42.892;24.710;2023-01-31T08:10:49;96422.56;;;0.75;85.64
44001;BME280;29660;42.892;24.710;2023-01-31T08:16:12;96398.13;;;0.74;84.74
44001;BME280;29660;42.892;24.710;2023-01-31T08:21:15;96649.69;;;2.41;85.86
44001;BME280;29660;42.892;24.710;2023-01-31T08:26:19;96582.06;;;2.03;86.25
44001;BME280;29660;42.892;24.710;2023-01-31T08:31:24;96432.88;;;1.15;83.61
44001;BME280;29660;42.892;24.710;2023-01-31T08:36:34;96622.38;;;2.47;83.33
44001;BME280;29660;42.892;24.710;2023-01-31T08:41:38;96638.31;;;2.57;84.16
44001;BME280;29660;42.892;24.710;2023-01-31T08:46:40;96484.00;;;1.63;83.93
44001;BME280;29660;42.892;24.710;2023-01-31T08:52:01;96639.13;;;2.80;83.53
44001;BME280;29660;42.892;24.710;2023-01-31T08:57:03;96416.44;;;1.42;83.68
44001;BME280;29660;42.892;24.710;2023-01-31T09:02:05;96427.88;;;1.53;81.74
44001;BME280;29660;42.892;24.710;2023-01-31T09:07:08;96420.38;;;1.61;82.17
44001;BME280;29660;42.892;24.710;2023-01-31T09:12:11;96613.81;;;2.79;81.45
44001;BME280;29660;42.892;24.710;2023-01-31T09:17:13;96668.53;;;3.20;81.04
44001;BME280;29660;42.892;24.710;2023-01-31T09:22:15;96441.19;;;1.85;80.98
44001;BME280;29660;42.892;24.710;2023-01-31T09:27:17;96519.03;;;2.52;81.59
44001;BME280;29660;42.892;24.710;2023-01-31T09:32:19;96606.41;;;3.25;80.05
44001;BME280;29660;42.892;24.710;2023-01-31T09:37:22;96650.53;;;3.66;80.77
44001;BME280;29660;42.892;24.710;2023-01-31T09:42:33;96599.72;;;3.44;79.68
44001;BME280;29660;42.892;24.710;2023-01-31T09:47:45;96631.91;;;3.78;79.53
44001;BME280;29660;42.892;24.710;2023-01-31T09:52:48;96620.88;;;3.81;77.06
44001;BME280;29660;42.892;24.710;2023-01-31T10:13:40;96484.00;;;3.10;77.32
44001;BME280;29660;42.892;24.710;2023-01-31T10:18:58;96588.47;;;3.91;78.30
44001;BME280;29660;42.892;24.710;2023-01-31T10:24:14;96633.91;;;3.98;77.98
44001;BME280;29660;42.892;24.710;2023-01-31T10:29:23;96579.19;;;3.83;77.71
44001;BME280;29660;42.892;24.710;2023-01-31T10:34:47;96371.06;;;2.50;77.46
44001;BME280;29660;42.892;24.710;2023-01-31T10:39:54;96402.88;;;2.75;78.56
44001;BME280;29660;42.892;24.710;2023-01-31T10:50:15;96589.81;;;3.93;78.24
44001;BME280;29660;42.892;24.710;2023-01-31T11:00:30;96353.47;;;2.55;78.33
44001;BME280;29660;42.892;24.710;2023-01-31T11:05:36;96340.91;;;2.62;78.32
44001;BME280;29660;42.892;24.710;2023-01-31T11:10:54;96599.03;;;4.33;77.41
44001;BME280;29660;42.892;24.710;2023-01-31T11:15:56;96370.13;;;2.98;78.72
44001;BME280;29660;42.892;24.710;2023-01-31T11:21:00;96539.09;;;4.29;78.32
44001;BME280;29660;42.892;24.710;2023-01-31T11:26:04;96327.28;;;2.70;78.83
44001;BME280;29660;42.892;24.710;2023-01-31T11:31:16;96576.03;;;4.29;78.80
44001;BME280;29660;42.892;24.710;2023-01-31T11:36:20;96352.47;;;2.61;78.96
44001;BME280;29660;42.892;24.710;2023-01-31T11:41:35;96376.75;;;2.68;79.79
44001;BME280;29660;42.892;24.710;2023-01-31T11:47:04;96564.06;;;4.16;82.10
44001;BME280;29660;42.892;24.710;2023-01-31T11:52:16;96549.31;;;4.15;78.54
44001;BME280;29660;42.892;24.710;2023-01-31T11:57:25;96371.72;;;2.99;79.00
44001;BME280;29660;42.892;24.710;2023-01-31T12:07:48;96565.84;;;4.53;80.50
44001;BME280;29660;42.892;24.710;2023-01-31T12:12:51;96575.47;;;4.89;78.63
44001;BME280;29660;42.892;24.710;2023-01-31T12:17:53;96541.81;;;4.54;77.57
44001;BME280;29660;42.892;24.710;2023-01-31T12:39:13;96572.22;;;4.57;79.11
44001;BME280;29660;42.892;24.710;2023-01-31T12:49:56;96584.06;;;4.54;80.58
44001;BME280;29660;42.892;24.710;2023-01-31T12:55:19;96583.44;;;4.32;79.08
44001;BME280;29660;42.892;24.710;2023-01-31T13:00:31;96615.09;;;4.32;80.58
44001;BME280;29660;42.892;24.710;2023-01-31T13:05:58;96600.31;;;4.26;82.51
44001;BME280;29660;42.892;24.710;2023-01-31T13:11:09;96572.91;;;4.37;83.28
44001;BME280;29660;42.892;24.710;2023-01-31T13:16:17;96618.53;;;4.95;80.27
44001;BME280;29660;42.892;24.710;2023-01-31T13:21:23;96594.53;;;5.02;77.89
44001;BME280;29660;42.892;24.710;2023-01-31T13:26:31;96583.47;;;4.37;79.08
44001;BME280;29660;42.892;24.710;2023-01-31T13:37:00;96538.34;;;3.91;82.87
44001;BME280;29660;42.892;24.710;2023-01-31T13:42:03;96627.09;;;4.02;84.51
44001;BME280;29660;42.892;24.710;2023-01-31T13:57:31;96382.53;;;2.38;84.25
44001;BME280;29660;42.892;24.710;2023-01-31T14:02:34;96636.47;;;3.88;86.04
44001;BME280;29660;42.892;24.710;2023-01-31T14:07:36;96369.31;;;2.01;87.03
44001;BME280;29660;42.892;24.710;2023-01-31T14:12:38;96469.59;;;2.59;90.00
44001;BME280;29660;42.892;24.710;2023-01-31T14:28:23;96416.31;;;2.46;88.44
44001;BME280;29660;42.892;24.710;2023-01-31T14:33:27;96609.28;;;3.50;91.58
44001;BME280;29660;42.892;24.710;2023-01-31T14:39:53;96527.47;;;2.81;86.75
44001;BME280;29660;42.892;24.710;2023-01-31T14:45:08;96685.78;;;3.55;87.10
44001;BME280;29660;42.892;24.710;2023-01-31T14:55:25;96707.16;;;3.59;86.57
44001;BME280;29660;42.892;24.710;2023-01-31T15:00:35;96720.50;;;3.47;87.12
44001;BME280;29660;42.892;24.710;2023-01-31T15:05:41;96647.94;;;2.68;87.23
44001;BME280;29660;42.892;24.710;2023-01-31T15:11:16;96749.75;;;3.24;88.62
44001;BME280;29660;42.892;24.710;2023-01-31T15:16:43;96481.22;;;1.53;86.97
44001;BME280;29660;42.892;24.710;2023-01-31T15:21:47;96506.28;;;1.61;86.75
44001;BME280;29660;42.892;24.710;2023-01-31T15:26:54;96749.19;;;3.22;87.47
44001;BME280;29660;42.892;24.710;2023-01-31T15:32:07;96760.16;;;3.13;89.35
44001;BME280;29660;42.892;24.710;2023-01-31T15:37:17;96736.25;;;2.98;89.61
44001;BME280;29660;42.892;24.710;2023-01-31T15:42:25;96557.66;;;1.85;89.83
44001;BME280;29660;42.892;24.710;2023-01-31T15:47:27;96569.22;;;1.67;90.02
44001;BME280;29660;42.892;24.710;2023-01-31T15:52:31;96713.94;;;2.62;90.68
44001;BME280;29660;42.892;24.710;2023-01-31T15:57:43;96357.72;;;0.25;90.35
44001;BME280;29660;42.892;24.710;2023-01-31T16:02:47;96786.94;;;3.05;89.62
44001;BME280;29660;42.892;24.710;2023-01-31T16:07:49;96703.13;;;2.41;89.53
44001;BME280;29660;42.892;24.710;2023-01-31T16:12:52;96529.00;;;1.16;92.32
44001;BME280;29660;42.892;24.710;2023-01-31T16:17:59;96577.13;;;1.34;94.02
44001;BME280;29660;42.892;24.710;2023-01-31T16:23:02;96757.72;;;2.51;95.00
44001;BME280;29660;42.892;24.710;2023-01-31T16:28:08;96506.88;;;0.79;97.42
44001;BME280;29660;42.892;24.710;2023-01-31T16:33:20;96564.91;;;1.11;97.27
44001;BME280;29660;42.892;24.710;2023-01-31T16:38:25;96538.19;;;0.85;98.30
44001;BME280;29660;42.892;24.710;2023-01-31T16:43:31;96507.94;;;0.66;96.52
44001;BME280;29660;42.892;24.710;2023-01-31T16:48:37;96663.75;;;1.62;94.75
44001;BME280;29660;42.892;24.710;2023-01-31T16:53:41;96832.25;;;2.68;94.63
44001;BME280;29660;42.892;24.710;2023-01-31T17:09:15;96799.63;;;2.36;93.40
44001;BME280;29660;42.892;24.710;2023-01-31T17:14:19;96608.75;;;1.10;92.52
44001;BME280;29660;42.892;24.710;2023-01-31T17:19:21;96811.25;;;2.23;93.12
44001;BME280;29660;42.892;24.710;2023-01-31T17:24:25;96622.63;;;0.94;94.41
44001;BME280;29660;42.892;24.710;2023-01-31T17:29:27;96597.22;;;0.83;93.20
44001;BME280;29660;42.892;24.710;2023-01-31T17:34:29;96862.78;;;2.36;94.23
44001;BME280;29660;42.892;24.710;2023-01-31T17:39:32;96662.00;;;0.94;93.74
44001;BME280;29660;42.892;24.710;2023-01-31T17:44:36;96667.75;;;0.91;94.14
44001;BME280;29660;42.892;24.710;2023-01-31T17:49:38;96634.81;;;0.71;93.66
44001;BME280;29660;42.892;24.710;2023-01-31T17:54:40;96604.88;;;0.44;94.60
44001;BME280;29660;42.892;24.710;2023-01-31T17:59:42;96721.53;;;1.17;94.24
44001;BME280;29660;42.892;24.710;2023-01-31T18:04:44;96609.91;;;0.34;93.69
44001;BME280;29660;42.892;24.710;2023-01-31T18:09:46;96909.06;;;2.20;93.49
44001;BME280;29660;42.892;24.710;2023-01-31T18:14:48;96825.78;;;1.68;93.49
44001;BME280;29660;42.892;24.710;2023-01-31T18:19:50;96630.38;;;0.60;92.81
44001;BME280;29660;42.892;24.710;2023-01-31T18:24:52;96805.91;;;1.61;93.72
44001;BME280;29660;42.892;24.710;2023-01-31T18:29:54;96666.97;;;0.79;93.66
44001;BME280;29660;42.892;24.710;2023-01-31T18:34:56;96662.41;;;0.74;93.76
44001;BME280;29660;42.892;24.710;2023-01-31T18:39:58;96673.19;;;0.49;93.89
44001;BME280;29660;42.892;24.710;2023-01-31T18:45:00;96664.03;;;0.63;95.29
44001;BME280;29660;42.892;24.710;2023-01-31T18:50:04;96499.88;;;-0.37;92.04
44001;BME280;29660;42.892;24.710;2023-01-31T18:55:07;96861.28;;;1.83;92.47
44001;BME280;29660;42.892;24.710;2023-01-31T19:00:09;96695.78;;;0.90;91.24
44001;BME280;29660;42.892;24.710;2023-01-31T19:05:12;96669.38;;;0.68;89.93
44001;BME280;29660;42.892;24.710;2023-01-31T19:10:14;96557.59;;;0.04;89.55
44001;BME280;29660;42.892;24.710;2023-01-31T19:15:16;96928.25;;;2.32;91.10
44001;BME280;29660;42.892;24.710;2023-01-31T19:20:18;96675.75;;;0.72;90.34
44001;BME280;29660;42.892;24.710;2023-01-31T19:25:22;96674.06;;;0.66;87.87
44001;BME280;29660;42.892;24.710;2023-01-31T19:30:24;96756.97;;;1.14;88.89
44001;BME280;29660;42.892;24.710;2023-01-31T19:35:28;96695.97;;;0.72;89.37
44001;BME280;29660;42.892;24.710;2023-01-31T19:40:31;96684.56;;;0.55;88.65
44001;BME280;29660;42.892;24.710;2023-01-31T19:45:33;96909.22;;;1.73;91.21
44001;BME280;29660;42.892;24.710;2023-01-31T19:50:37;96864.09;;;1.53;90.15
44001;BME280;29660;42.892;24.710;2023-01-31T19:55:50;96706.38;;;0.32;89.88
44001;BME280;29660;42.892;24.710;2023-01-31T20:00:52;96913.00;;;1.65;90.49
44001;BME280;29660;42.892;24.710;2023-01-31T20:06:00;96768.53;;;0.78;91.28
44001;BME280;29660;42.892;24.710;2023-01-31T20:11:03;96955.84;;;1.78;91.74
44001;BME280;29660;42.892;24.710;2023-01-31T20:16:08;96740.25;;;0.45;92.61
44001;BME280;29660;42.892;24.710;2023-01-31T20:21:17;96746.28;;;0.34;95.47
44001;BME280;29660;42.892;24.710;2023-01-31T20:26:20;97030.81;;;1.92;98.45
44001;BME280;29660;42.892;24.710;2023-01-31T20:31:27;96999.63;;;1.48;100.00
44001;BME280;29660;42.892;24.710;2023-01-31T20:36:29;96792.25;;;0.24;100.00
44001;BME280;29660;42.892;24.710;2023-01-31T20:41:31;97010.28;;;1.65;100.00
44001;BME280;29660;42.892;24.710;2023-01-31T20:46:33;96972.34;;;1.38;100.00
44001;BME280;29660;42.892;24.710;2023-01-31T20:51:35;96712.59;;;-0.16;100.00
44001;BME280;29660;42.892;24.710;2023-01-31T20:56:37;96755.28;;;0.14;100.00
44001;BME280;29660;42.892;24.710;2023-01-31T21:01:42;96961.47;;;1.34;100.00
44001;BME280;29660;42.892;24.710;2023-01-31T21:06:44;96786.75;;;0.26;100.00
44001;BME280;29660;42.892;24.710;2023-01-31T21:11:46;96798.75;;;0.34;100.00
44001;BME280;29660;42.892;24.710;2023-01-31T21:16:48;97014.94;;;1.75;100.00
44001;BME280;29660;42.892;24.710;2023-01-31T21:21:49;96971.06;;;1.52;100.00
44001;BME280;29660;42.892;24.710;2023-01-31T21:26:51;96982.50;;;1.46;100.00
44001;BME280;29660;42.892;24.710;2023-01-31T21:31:54;96808.78;;;0.37;100.00
44001;BME280;29660;42.892;24.710;2023-01-31T21:36:56;97024.41;;;1.64;100.00
44001;BME280;29660;42.892;24.710;2023-01-31T21:41:58;96782.88;;;0.17;100.00
44001;BME280;29660;42.892;24.710;2023-01-31T21:47:15;96733.91;;;-0.13;100.00
44001;BME280;29660;42.892;24.710;2023-01-31T21:52:17;96807.56;;;0.39;100.00
44001;BME280;29660;42.892;24.710;2023-01-31T21:57:19;96964.09;;;1.46;100.00
44001;BME280;29660;42.892;24.710;2023-01-31T22:02:21;97017.31;;;1.88;100.00
44001;BME280;29660;42.892;24.710;2023-01-31T22:07:23;96745.25;;;0.11;100.00
44001;BME280;29660;42.892;24.710;2023-01-31T22:12:25;96989.69;;;1.62;100.00
44001;BME280;29660;42.892;24.710;2023-01-31T22:17:27;96836.31;;;0.69;100.00
44001;BME280;29660;42.892;24.710;2023-01-31T22:22:29;96780.50;;;0.39;100.00
44001;BME280;29660;42.892;24.710;2023-01-31T22:27:31;96962.72;;;1.55;100.00
44001;BME280;29660;42.892;24.710;2023-01-31T22:32:33;97012.56;;;1.74;95.90
44001;BME280;29660;42.892;24.710;2023-01-31T22:37:35;96965.94;;;1.34;96.27
44001;BME280;29660;42.892;24.710;2023-01-31T22:42:38;96998.13;;;1.64;97.98
44001;BME280;29660;42.892;24.710;2023-01-31T22:47:40;97027.38;;;1.80;97.01
44001;BME280;29660;42.892;24.710;2023-01-31T22:52:42;96895.56;;;1.12;97.17
44001;BME280;29660;42.892;24.710;2023-01-31T22:57:44;96938.97;;;1.50;97.05
44001;BME280;29660;42.892;24.710;2023-01-31T23:02:46;96940.13;;;1.42;95.21
44001;BME280;29660;42.892;24.710;2023-01-31T23:07:47;96944.44;;;1.48;96.87
44001;BME280;29660;42.892;24.710;2023-01-31T23:13:08;96727.69;;;0.12;96.30
44001;BME280;29660;42.892;24.710;2023-01-31T23:18:14;96767.16;;;0.40;93.32
44001;BME280;29660;42.892;24.710;2023-01-31T23:23:16;96995.84;;;1.80;93.64
44001;BME280;29660;42.892;24.710;2023-01-31T23:28:18;97018.94;;;2.01;95.42
44001;BME280;29660;42.892;24.710;2023-01-31T23:33:21;96788.97;;;0.41;93.83
44001;BME280;29660;42.892;24.710;2023-01-31T23:38:23;96792.84;;;0.50;94.12
44001;BME280;29660;42.892;24.710;2023-01-31T23:43:25;96963.88;;;1.59;93.05
44001;BME280;29660;42.892;24.710;2023-01-31T23:48:34;96999.59;;;1.84;93.90
44001;BME280;29660;42.892;24.710;2023-01-31T23:53:37;96809.84;;;0.59;95.79
44001;BME280;29660;42.892;24.710;2023-01-31T23:58:39;96986.28;;;1.62;93.75
